createdAt,value
2019-01-20T00:01:44.295Z,62.20
2019-01-20T00:06:47.915Z,63.00
2019-01-20T00:11:51.884Z,63.20
2019-01-20T00:16:55.498Z,63.70
2019-01-20T00:21:59.242Z,63.90
2019-01-20T00:27:02.968Z,64.00
2019-01-20T00:32:06.575Z,63.10
2019-01-20T00:37:10.447Z,63.40
2019-01-20T00:42:14.042Z,63.40
2019-01-20T00:47:18.061Z,63.20
2019-01-20T00:52:21.772Z,63.20
2019-01-20T00:57:25.374Z,62.80
2019-01-20T01:02:29.072Z,63.10
2019-01-20T01:07:32.678Z,63.60
2019-01-20T01:12:37.734Z,63.60
2019-01-20T01:17:41.411Z,63.30
2019-01-20T01:22:45.175Z,63.40
2019-01-20T01:27:48.875Z,63.90
2019-01-20T01:32:52.613Z,63.70
2019-01-20T01:37:56.162Z,63.60
2019-01-20T01:42:59.837Z,63.80
2019-01-20T01:48:03.785Z,63.70
2019-01-20T01:53:07.402Z,63.60
2019-01-20T01:58:11.015Z,63.70
2019-01-20T02:03:14.625Z,64.00
2019-01-20T02:08:18.296Z,64.00
2019-01-20T02:13:21.915Z,64.50
2019-01-20T02:18:25.521Z,64.20
2019-01-20T02:23:29.190Z,63.90
2019-01-20T02:28:33.094Z,64.00
2019-01-20T02:33:36.711Z,63.70
2019-01-20T02:38:40.294Z,63.90
2019-01-20T02:43:43.979Z,63.90
2019-01-20T02:48:47.595Z,64.00
2019-01-20T02:53:51.525Z,63.90
2019-01-20T02:58:55.120Z,64.00
2019-01-20T03:03:58.757Z,63.90
2019-01-20T03:09:04.099Z,64.20
2019-01-20T03:14:07.958Z,64.30
2019-01-20T03:19:11.647Z,64.30
2019-01-20T03:24:15.252Z,64.80
2019-01-20T03:29:19.130Z,64.70
2019-01-20T03:34:22.763Z,65.00
2019-01-20T03:39:26.329Z,64.90
2019-01-20T03:44:31.796Z,64.80
2019-01-20T03:49:35.384Z,65.30
2019-01-20T03:54:39.005Z,65.20
2019-01-20T03:59:42.698Z,65.00
2019-01-20T04:04:46.305Z,65.30
2019-01-20T04:09:49.924Z,65.20
2019-01-20T04:14:53.683Z,64.80
2019-01-20T04:19:57.292Z,64.70
2019-01-20T04:25:00.898Z,64.60
2019-01-20T04:30:06.954Z,64.60
2019-01-20T04:35:11.498Z,64.40
2019-01-20T04:40:18.605Z,64.70
2019-01-20T04:45:22.198Z,64.60
2019-01-20T04:50:26.118Z,65.80
2019-01-20T04:55:29.725Z,66.40
2019-01-20T05:00:33.411Z,66.80
2019-01-20T05:05:37.021Z,66.80
2019-01-20T05:10:40.636Z,67.10
2019-01-20T05:15:44.250Z,67.20
2019-01-20T05:20:47.873Z,67.60
2019-01-20T05:25:51.477Z,67.80
2019-01-20T05:30:55.118Z,67.70
2019-01-20T05:35:58.732Z,67.20
2019-01-20T05:41:02.341Z,66.80
2019-01-20T05:46:06.031Z,66.60
2019-01-20T05:51:09.733Z,66.50
2019-01-20T05:56:13.639Z,66.90
2019-01-20T06:01:17.268Z,67.40
2019-01-20T06:06:20.877Z,67.80
2019-01-20T06:11:24.487Z,67.50
2019-01-20T06:16:28.445Z,67.30
2019-01-20T06:21:32.058Z,67.70
2019-01-20T06:26:35.669Z,68.10
2019-01-20T06:31:39.283Z,68.60
2019-01-20T06:36:42.884Z,68.70
2019-01-20T06:41:46.501Z,68.50
2019-01-20T06:46:50.106Z,68.70
2019-01-20T06:51:53.717Z,68.90
2019-01-20T06:56:57.328Z,68.70
2019-01-20T07:02:00.943Z,69.00
2019-01-20T07:07:04.696Z,69.20
2019-01-20T07:12:08.294Z,69.10
2019-01-20T07:17:11.906Z,68.70
2019-01-20T07:22:22.950Z,68.50
2019-01-20T07:27:26.558Z,68.80
2019-01-20T07:32:30.171Z,69.10
2019-01-20T07:37:33.772Z,69.20
2019-01-20T07:42:37.641Z,68.80
2019-01-20T07:47:41.570Z,68.20
2019-01-20T07:52:45.155Z,67.90
2019-01-20T07:57:50.087Z,67.60
2019-01-20T08:02:53.986Z,67.30
2019-01-20T08:07:57.611Z,67.50
2019-01-20T08:13:01.213Z,67.70
2019-01-20T08:18:05.260Z,67.80
2019-01-20T08:23:08.875Z,67.20
2019-01-20T08:28:24.297Z,67.20
2019-01-20T08:33:27.901Z,67.30
2019-01-20T08:38:31.722Z,68.10
2019-01-20T08:43:35.460Z,68.50
2019-01-20T08:48:39.091Z,68.60
2019-01-20T08:53:42.710Z,68.40
2019-01-20T08:58:46.424Z,67.90
2019-01-20T09:03:50.050Z,67.30
2019-01-20T09:08:53.659Z,66.10
2019-01-20T09:13:57.286Z,66.30
2019-01-20T09:19:00.940Z,66.50
2019-01-20T09:24:04.811Z,66.70
2019-01-20T09:29:08.429Z,66.90
2019-01-20T09:34:12.050Z,67.50
2019-01-20T09:39:15.766Z,66.90
2019-01-20T09:44:19.613Z,66.10
2019-01-20T09:49:23.294Z,65.50
2019-01-20T09:54:26.936Z,64.30
2019-01-20T09:59:30.575Z,64.30
2019-01-20T10:04:34.188Z,65.10
2019-01-20T10:09:37.806Z,65.30
2019-01-20T10:14:41.424Z,65.00
2019-01-20T10:19:51.070Z,63.50
2019-01-20T10:24:54.690Z,63.00
2019-01-20T10:29:58.304Z,63.20
2019-01-20T10:35:02.394Z,62.40
2019-01-20T10:40:08.075Z,60.20
2019-01-20T10:45:12.242Z,58.40
2019-01-20T10:50:18.102Z,56.60
2019-01-20T10:55:21.781Z,55.10
2019-01-20T11:00:28.279Z,49.80
2019-01-20T11:05:32.823Z,51.00
2019-01-20T11:10:36.679Z,50.80
2019-01-20T11:15:40.394Z,50.80
2019-01-20T11:20:44.239Z,49.20
2019-01-20T11:25:47.843Z,49.50
2019-01-20T11:30:51.593Z,50.20
2019-01-20T11:35:55.191Z,52.50
2019-01-20T11:40:58.855Z,54.00
2019-01-20T11:46:02.539Z,55.30
2019-01-20T11:51:06.156Z,56.80
2019-01-20T11:56:09.814Z,56.70
2019-01-20T12:01:13.413Z,57.00
2019-01-20T12:06:17.038Z,56.90
2019-01-20T12:11:39.990Z,56.70
2019-01-20T12:16:46.030Z,55.40
2019-01-20T12:21:54.070Z,56.60
2019-01-20T12:27:03.382Z,56.70
2019-01-20T12:32:14.107Z,55.30
2019-01-20T12:37:20.668Z,54.80
2019-01-20T12:42:28.716Z,55.60
2019-01-20T12:47:37.041Z,55.30
2019-01-20T12:58:55.782Z,56.00
2019-01-20T13:03:59.535Z,56.30
2019-01-20T13:09:05.196Z,56.70
2019-01-20T13:14:08.992Z,57.20
2019-01-20T13:19:15.332Z,57.80
2019-01-20T13:24:23.390Z,57.90
2019-01-20T13:29:31.060Z,57.70
2019-01-20T13:34:38.985Z,58.20
2019-01-20T13:39:46.547Z,57.40
2019-01-20T13:44:56.124Z,57.20
2019-01-20T13:50:08.731Z,56.70
2019-01-20T13:55:14.331Z,56.80
2019-01-20T14:00:24.430Z,56.00
2019-01-20T14:05:30.709Z,56.60
2019-01-20T14:10:41.612Z,58.70
2019-01-20T14:15:49.786Z,57.80
2019-01-20T14:20:56.721Z,58.00
2019-01-20T14:26:05.062Z,57.10
2019-01-20T14:42:10.603Z,57.60
2019-01-20T14:47:33.542Z,57.70
2019-01-20T14:52:37.215Z,57.30
2019-01-20T14:57:40.865Z,57.80
2019-01-20T15:02:44.473Z,58.20
2019-01-20T15:07:51.315Z,58.70
2019-01-20T15:23:04.302Z,59.40
2019-01-20T15:33:17.722Z,59.90
2019-01-20T15:38:21.333Z,59.30
2019-01-20T15:43:24.926Z,59.50
2019-01-20T15:48:28.591Z,59.90
2019-01-20T15:53:32.261Z,60.10
2019-01-20T15:58:35.896Z,60.50
2019-01-20T16:03:39.474Z,60.10
2019-01-20T16:08:43.215Z,60.70
2019-01-20T16:13:46.901Z,60.40
2019-01-20T16:18:50.502Z,61.00
2019-01-20T16:23:54.122Z,61.40
2019-01-20T16:28:57.862Z,61.80
2019-01-20T16:34:01.455Z,62.00
2019-01-20T16:39:06.786Z,62.20
2019-01-20T16:44:10.432Z,62.30
2019-01-20T16:49:14.094Z,62.50
2019-01-20T16:54:17.706Z,62.70
2019-01-20T16:59:21.528Z,62.80
2019-01-20T17:04:25.629Z,62.80
2019-01-20T17:09:29.254Z,62.80
2019-01-20T17:14:32.899Z,63.40
2019-01-20T17:19:36.541Z,63.60
2019-01-20T17:24:40.280Z,63.80
2019-01-20T17:29:43.878Z,64.10
2019-01-20T17:34:47.479Z,64.10
2019-01-20T17:39:51.138Z,64.40
2019-01-20T17:44:55.153Z,64.20
2019-01-20T17:49:58.787Z,64.20
2019-01-20T17:55:02.433Z,64.20
2019-01-20T18:00:15.095Z,64.10
2019-01-20T18:05:21.814Z,64.40
2019-01-20T18:10:25.518Z,64.50
2019-01-20T18:15:29.194Z,64.70
2019-01-20T18:20:34.583Z,65.20
2019-01-20T18:25:38.276Z,65.20
2019-01-20T18:30:41.883Z,65.60
2019-01-20T18:35:45.617Z,65.50
2019-01-20T18:40:49.297Z,65.40
2019-01-20T18:45:52.955Z,65.30
2019-01-20T18:50:56.698Z,65.20
2019-01-20T18:56:00.527Z,64.90
2019-01-20T19:01:04.225Z,64.70
2019-01-20T19:06:07.917Z,64.50
2019-01-20T19:11:11.525Z,64.50
2019-01-20T19:16:15.249Z,64.80
2019-01-20T19:21:18.862Z,64.60
2019-01-20T19:26:22.485Z,64.60
2019-01-20T19:31:26.097Z,65.10
2019-01-20T19:36:29.839Z,65.70
2019-01-20T19:41:35.279Z,66.10
2019-01-20T19:46:38.807Z,66.20
2019-01-20T19:51:42.413Z,66.50
2019-01-20T19:56:46.065Z,66.00
2019-01-20T20:01:50.215Z,65.80
2019-01-20T20:06:53.873Z,66.10
2019-01-20T20:11:57.582Z,66.50
2019-01-20T20:17:01.232Z,66.50
2019-01-20T20:22:04.966Z,66.50
2019-01-20T20:27:11.840Z,66.90
2019-01-20T20:32:15.465Z,67.40
2019-01-20T20:37:19.122Z,67.80
2019-01-20T20:42:22.961Z,67.70
2019-01-20T20:47:26.578Z,68.10
2019-01-20T20:52:30.247Z,68.80
2019-01-20T20:57:34.133Z,68.90
2019-01-20T21:02:37.767Z,69.00
2019-01-20T21:07:41.450Z,68.10
2019-01-20T21:12:45.126Z,67.80
2019-01-20T21:17:48.778Z,67.70
2019-01-20T21:22:52.361Z,67.60
2019-01-20T21:27:55.971Z,67.40
2019-01-20T21:32:59.569Z,67.20
2019-01-20T21:38:07.005Z,67.40
2019-01-20T21:43:08.719Z,67.70
2019-01-20T21:48:12.345Z,67.90
2019-01-20T21:53:15.955Z,67.90
2019-01-20T21:58:19.674Z,67.90
2019-01-20T22:03:23.346Z,67.60
2019-01-20T22:08:26.946Z,67.50
2019-01-20T22:13:30.551Z,67.20
2019-01-20T22:18:34.157Z,67.20
2019-01-20T22:23:37.801Z,67.10
2019-01-20T22:28:41.434Z,67.10
2019-01-20T22:33:45.041Z,67.10
2019-01-20T22:38:48.737Z,67.20
2019-01-20T22:44:11.666Z,66.80
2019-01-20T22:49:15.270Z,66.90
2019-01-20T22:54:18.882Z,67.00
2019-01-20T22:59:22.519Z,66.80
2019-01-20T23:04:26.096Z,66.80
2019-01-20T23:09:29.713Z,66.90
2019-01-20T23:14:33.330Z,67.10
2019-01-20T23:19:36.949Z,67.20
2019-01-20T23:24:40.571Z,67.10
2019-01-20T23:29:44.183Z,66.80
2019-01-20T23:34:47.803Z,67.10
2019-01-20T23:39:51.414Z,67.50
2019-01-20T23:44:55.106Z,67.80
2019-01-20T23:49:58.732Z,67.80
2019-01-20T23:55:02.413Z,67.60
